createdAt,value
2023-05-10T07:55:38.733Z,2.78
2023-05-10T07:58:40.376Z,3.33
2023-05-10T08:01:41.839Z,4.80
2023-05-10T08:04:43.343Z,3.22
2023-05-10T08:07:44.913Z,5.93
2023-05-10T08:10:46.473Z,3.05
2023-05-10T08:13:49.067Z,3.38
2023-05-10T08:16:50.591Z,1.48
2023-05-10T08:19:52.079Z,0.98
2023-05-10T08:22:53.926Z,1.15
2023-05-10T08:25:55.379Z,2.30
2023-05-10T08:28:56.824Z,2.80
2023-05-10T08:31:58.387Z,6.50
2023-05-10T08:34:59.842Z,3.47
2023-05-10T08:38:01.771Z,1.45
2023-05-10T08:41:03.704Z,0.95
2023-05-10T08:44:06.260Z,0.68
2023-05-10T08:47:08.422Z,3.33
2023-05-10T08:50:11.498Z,1.80
2023-05-10T08:53:15.520Z,6.95
2023-05-10T08:56:18.558Z,0.60
2023-05-10T08:59:20.149Z,2.30
2023-05-10T09:02:22.161Z,0.70
2023-05-10T09:05:23.898Z,0.30
2023-05-10T09:08:26.772Z,0.47
2023-05-10T09:11:30.082Z,1.90
2023-05-10T09:14:33.914Z,5.93
2023-05-10T09:17:35.658Z,4.55
2023-05-10T09:20:37.147Z,3.65
2023-05-10T09:23:38.561Z,9.45
2023-05-10T09:26:49.846Z,2.65
2023-05-10T09:29:55.240Z,1.80
2023-05-10T09:32:58.523Z,1.40
2023-05-10T09:36:09.161Z,1.80
2023-05-10T09:39:10.814Z,1.42
2023-05-10T09:42:12.346Z,2.30
2023-05-10T09:45:13.886Z,0.85
2023-05-10T09:48:15.421Z,2.75
2023-05-10T09:51:36.779Z,1.63
2023-05-10T09:54:38.637Z,4.03
2023-05-10T09:57:40.328Z,0.82
2023-05-10T10:00:46.283Z,2.25
2023-05-10T10:03:47.781Z,1.90
2023-05-10T10:07:01.278Z,0.93
2023-05-10T10:10:03.526Z,1.00
2023-05-10T10:13:05.781Z,2.05
2023-05-10T10:16:09.199Z,2.55
2023-05-10T10:19:11.234Z,1.23
2023-05-10T10:22:12.871Z,9.65
2023-05-10T10:25:17.210Z,3.58
2023-05-10T10:28:28.723Z,2.90
2023-05-10T10:31:46.197Z,1.45
2023-05-10T10:34:48.060Z,2.15
2023-05-10T10:37:51.580Z,1.98
2023-05-10T10:41:27.519Z,1.98
2023-05-10T10:44:32.170Z,1.73
2023-05-10T10:47:34.246Z,1.10
2023-05-10T10:50:45.682Z,3.28
2023-05-10T10:53:48.875Z,2.85
2023-05-10T10:57:14.544Z,4.40
2023-05-10T11:00:39.381Z,5.35
2023-05-10T11:03:41.008Z,0.77
2023-05-10T11:06:43.450Z,7.88
2023-05-10T11:09:44.976Z,3.15
2023-05-10T11:13:09.451Z,4.63
2023-05-10T11:16:22.117Z,4.50
2023-05-10T11:19:28.657Z,4.07
2023-05-10T11:22:30.185Z,1.20
2023-05-10T11:25:31.658Z,2.42
2023-05-10T11:28:33.178Z,1.33
2023-05-10T11:31:36.393Z,1.02
2023-05-10T11:34:38.075Z,1.77
2023-05-10T11:37:42.270Z,0.85
2023-05-10T11:40:44.318Z,1.80
2023-05-10T11:43:49.832Z,3.30
2023-05-10T11:46:51.469Z,2.17
2023-05-10T11:49:53.230Z,1.10
2023-05-10T11:52:58.340Z,1.55
2023-05-10T11:56:07.835Z,0.85
2023-05-10T11:59:09.541Z,1.70
2023-05-10T12:02:11.368Z,1.45
2023-05-10T12:05:13.093Z,1.42
2023-05-10T12:08:22.518Z,2.28
2023-05-10T12:11:28.728Z,1.70
2023-05-10T12:14:34.234Z,2.05
2023-05-10T12:17:39.885Z,3.85
2023-05-10T12:20:42.304Z,0.80
2023-05-10T12:23:46.778Z,1.55
2023-05-10T12:26:49.291Z,1.52
2023-05-10T12:29:50.896Z,0.95
2023-05-10T12:32:53.708Z,1.60
2023-05-10T12:35:57.220Z,0.82
2023-05-10T12:39:04.075Z,1.35
2023-05-10T12:42:05.830Z,0.80
2023-05-10T12:45:09.211Z,0.98
2023-05-10T12:48:10.759Z,1.35
2023-05-10T12:51:18.108Z,1.00
2023-05-10T12:54:22.485Z,0.95
2023-05-10T12:57:24.189Z,1.38
2023-05-10T13:00:25.877Z,4.65
2023-05-10T13:03:27.439Z,3.63
2023-05-10T13:06:28.984Z,1.17
2023-05-10T13:09:30.772Z,3.80
2023-05-10T13:12:32.497Z,4.78
2023-05-10T13:15:34.135Z,4.93
2023-05-10T13:18:35.828Z,3.42
2023-05-10T13:21:37.325Z,1.20
2023-05-10T13:24:38.778Z,1.60
2023-05-10T13:27:41.471Z,2.05
2023-05-10T13:30:42.987Z,2.35
2023-05-10T13:33:44.470Z,2.83
2023-05-10T13:36:45.982Z,1.27
2023-05-10T13:39:47.503Z,0.77
2023-05-10T13:42:48.983Z,0.80
2023-05-10T13:45:50.477Z,1.90
2023-05-10T13:48:51.988Z,1.30
2023-05-10T13:51:53.482Z,7.80
2023-05-10T13:54:56.213Z,3.33
2023-05-10T13:57:57.932Z,2.67
2023-05-10T14:00:59.409Z,1.48
2023-05-10T14:04:01.323Z,8.30
2023-05-10T14:07:02.870Z,1.38
2023-05-10T14:10:04.702Z,6.95
2023-05-10T14:13:06.261Z,1.90
2023-05-10T14:16:07.825Z,3.65
2023-05-10T14:19:09.392Z,1.75
2023-05-10T14:22:10.874Z,5.25
2023-05-10T14:25:12.753Z,5.68
2023-05-10T14:28:14.277Z,2.38
2023-05-10T14:31:17.878Z,3.33
2023-05-10T14:34:19.770Z,2.38
2023-05-10T14:37:21.935Z,3.97
2023-05-10T14:40:23.713Z,2.70
2023-05-10T14:43:25.344Z,2.92
2023-05-10T14:46:27.595Z,3.50
2023-05-10T14:49:29.231Z,2.53
2023-05-10T14:52:32.892Z,2.60
2023-05-10T14:55:36.077Z,3.20
2023-05-10T14:58:37.629Z,5.60
2023-05-10T15:01:42.147Z,6.35
2023-05-10T15:04:44.129Z,4.38
2023-05-10T15:07:46.050Z,4.22
2023-05-10T15:10:47.657Z,3.03
2023-05-10T15:13:49.111Z,5.55
2023-05-10T15:16:50.737Z,7.60
2023-05-10T15:19:52.303Z,3.88
2023-05-10T15:22:53.814Z,2.83
2023-05-10T15:25:56.627Z,3.15
2023-05-10T15:28:58.344Z,5.78
2023-05-10T15:32:00.545Z,8.40
2023-05-10T15:35:02.054Z,8.13
2023-05-10T15:38:03.577Z,9.82
2023-05-10T15:41:05.482Z,12.63
2023-05-10T15:44:07.105Z,15.57
2023-05-10T15:47:08.574Z,8.43
2023-05-10T15:50:11.093Z,16.90
2023-05-10T15:53:12.746Z,7.38
2023-05-10T15:56:14.240Z,12.52
2023-05-10T15:59:15.926Z,9.20
2023-05-10T16:02:19.248Z,11.85
2023-05-10T16:05:20.906Z,8.65
2023-05-10T16:08:22.503Z,7.65
2023-05-10T16:11:24.098Z,7.85
2023-05-10T16:14:25.656Z,11.82
2023-05-10T16:17:27.254Z,9.63
2023-05-10T16:20:29.950Z,11.27
2023-05-10T16:23:31.468Z,8.70
2023-05-10T16:26:33.071Z,6.95
2023-05-10T16:29:34.720Z,9.60
2023-05-10T16:32:36.559Z,7.47
2023-05-10T16:35:38.043Z,7.65
2023-05-10T16:38:39.581Z,9.65
2023-05-10T16:41:41.049Z,7.65
2023-05-10T16:44:42.730Z,7.43
2023-05-10T16:47:44.444Z,10.65
2023-05-10T16:50:46.517Z,9.68
2023-05-10T16:53:48.041Z,12.45
2023-05-10T16:56:49.571Z,7.15
2023-05-10T16:59:53.433Z,7.88
2023-05-10T17:02:55.130Z,8.18
2023-05-10T17:05:56.736Z,7.45
2023-05-10T17:08:58.333Z,5.15
2023-05-10T17:11:59.882Z,7.55
2023-05-10T17:15:01.683Z,4.50
2023-05-10T17:18:04.607Z,7.70
2023-05-10T17:21:06.151Z,6.00
2023-05-10T17:24:07.820Z,5.80
2023-05-10T17:27:09.368Z,7.35
2023-05-10T17:30:11.380Z,6.78
2023-05-10T17:33:12.991Z,9.77
2023-05-10T17:36:14.617Z,3.72
2023-05-10T17:39:16.136Z,8.80
2023-05-10T17:42:18.928Z,6.03
2023-05-10T17:45:20.603Z,5.65
2023-05-10T17:48:22.947Z,8.60
2023-05-10T17:51:24.456Z,4.65
2023-05-10T17:54:26.144Z,4.78
2023-05-10T17:57:27.891Z,6.55
2023-05-10T18:00:29.358Z,4.90
2023-05-10T18:03:30.862Z,5.32
2023-05-10T18:06:36.082Z,4.70
2023-05-10T18:09:37.612Z,5.10
2023-05-10T18:12:39.548Z,8.65
2023-05-10T18:15:41.193Z,3.03
2023-05-10T18:18:42.810Z,4.90
2023-05-10T18:21:44.421Z,5.13
2023-05-10T18:24:47.104Z,4.93
2023-05-10T18:27:48.855Z,5.55
2023-05-10T18:30:51.323Z,6.55
2023-05-10T18:33:53.175Z,5.75
2023-05-10T18:36:54.648Z,5.05
2023-05-10T18:39:56.260Z,5.70
2023-05-10T18:42:58.136Z,3.88
2023-05-10T18:45:59.915Z,5.00
2023-05-10T18:49:02.513Z,5.32
2023-05-10T18:52:04.040Z,4.28
2023-05-10T18:55:06.495Z,4.05
2023-05-10T18:58:10.894Z,5.45
2023-05-10T19:01:12.415Z,3.72
2023-05-10T19:04:13.913Z,4.75
2023-05-10T19:07:15.499Z,3.38
2023-05-10T19:10:16.946Z,3.60
2023-05-10T19:13:18.492Z,2.70
2023-05-10T19:16:20.232Z,4.15
2023-05-10T19:19:24.103Z,3.97
2023-05-10T19:22:44.881Z,4.60
2023-05-10T19:25:48.720Z,3.67
2023-05-10T19:28:53.987Z,6.20
2023-05-10T19:31:55.633Z,3.50
2023-05-10T19:34:57.239Z,3.60
2023-05-10T19:37:58.715Z,4.10
2023-05-10T19:41:00.463Z,4.82
2023-05-10T19:44:01.927Z,2.47
2023-05-10T19:47:05.228Z,2.45
2023-05-10T19:50:07.494Z,3.38
2023-05-10T19:53:09.080Z,4.00
2023-05-10T19:56:11.125Z,3.08
2023-05-10T19:59:12.954Z,2.45
2023-05-10T20:02:14.426Z,3.08
2023-05-10T20:05:16.194Z,3.67
2023-05-10T20:08:17.965Z,3.50
2023-05-10T20:11:19.486Z,4.75
2023-05-10T20:14:21.006Z,2.40
2023-05-10T20:17:22.584Z,3.50
2023-05-10T20:20:24.147Z,2.42
2023-05-10T20:23:26.289Z,2.45
2023-05-10T20:26:27.949Z,2.15
2023-05-10T20:29:29.422Z,2.63
2023-05-10T20:32:30.962Z,3.00
2023-05-10T20:35:34.115Z,3.10
2023-05-10T20:38:36.785Z,2.50
2023-05-10T20:41:39.219Z,3.47
2023-05-10T20:44:40.776Z,1.80
2023-05-10T20:47:42.478Z,2.88
2023-05-10T20:50:43.993Z,1.98
2023-05-10T20:53:45.750Z,2.28
2023-05-10T20:56:47.441Z,2.20
2023-05-10T20:59:52.779Z,2.40
2023-05-10T21:02:54.285Z,2.70
2023-05-10T21:05:55.814Z,1.63
2023-05-10T21:08:57.472Z,1.98
2023-05-10T21:11:58.985Z,1.63
2023-05-10T21:15:00.458Z,2.83
2023-05-10T21:18:02.095Z,2.35
2023-05-10T21:21:03.772Z,2.80
2023-05-10T21:24:05.849Z,2.40
2023-05-10T21:27:08.862Z,1.60
2023-05-10T21:30:10.700Z,3.00
2023-05-10T21:33:12.839Z,1.88
2023-05-10T21:36:14.418Z,2.38
2023-05-10T21:39:15.948Z,2.40
2023-05-10T21:42:17.402Z,7.07
2023-05-10T21:45:19.895Z,2.08
2023-05-10T21:48:21.404Z,1.92
2023-05-10T21:51:22.928Z,2.75
2023-05-10T21:54:24.508Z,2.50
2023-05-10T21:57:25.986Z,2.30
2023-05-10T22:00:27.652Z,1.90
2023-05-10T22:03:29.516Z,3.50
2023-05-10T22:06:31.841Z,1.98
2023-05-10T22:09:33.314Z,2.17
2023-05-10T22:12:34.870Z,2.92
2023-05-10T22:15:36.742Z,1.55
2023-05-10T22:18:38.496Z,2.00
2023-05-10T22:21:40.034Z,2.50
2023-05-10T22:24:41.743Z,1.92
2023-05-10T22:27:43.213Z,5.25
2023-05-10T22:30:44.838Z,2.45
2023-05-10T22:33:46.286Z,1.88
2023-05-10T22:36:49.013Z,8.18
2023-05-10T22:39:50.547Z,1.65
2023-05-10T22:42:52.079Z,1.65
2023-05-10T22:45:54.227Z,1.67
2023-05-10T22:48:55.778Z,2.17
2023-05-10T22:51:57.250Z,2.05
2023-05-10T22:54:58.742Z,2.50
2023-05-10T22:58:00.999Z,2.30
2023-05-10T23:01:02.548Z,4.47
2023-05-10T23:04:04.053Z,2.97
2023-05-10T23:07:05.931Z,1.73
2023-05-10T23:10:08.268Z,1.88
2023-05-10T23:13:09.781Z,1.98
2023-05-10T23:16:11.303Z,1.50
2023-05-10T23:19:12.826Z,1.83
2023-05-10T23:22:14.340Z,1.55
2023-05-10T23:25:15.840Z,2.58
2023-05-10T23:28:17.720Z,1.63
2023-05-10T23:31:19.373Z,1.55
2023-05-10T23:34:20.902Z,4.97
2023-05-10T23:37:22.425Z,1.95
2023-05-10T23:40:23.934Z,4.80
2023-05-10T23:43:25.608Z,2.08
2023-05-10T23:46:27.165Z,1.83
2023-05-10T23:49:29.391Z,1.95
2023-05-10T23:52:31.194Z,2.05
2023-05-10T23:55:32.698Z,2.08
2023-05-10T23:58:34.178Z,1.30
